State Park, South Carolina
Current Conditions -  °F | °C
As of 7:53 PM on Tuesday 27 Jan 2015 (Local Time) from KCUB Reporting Station
Clear Clear  
Wind Chill: 41°   Ceiling: Unl
Heat Index: 45°   Visibility: 10mi
Dew Point: 24°   Wind: 7mph
Humidity: 44%   Direction: 340°NNW
Pressure: 29.96"   Gusts: NA
Location:  34.09°N, 80.97°W
Report Text: KCUB 280053Z AUTO 34006KT 10SM CLR 07/M04 A2996 RMK AO2 SLP146 T00721044
Loading
Personal Weather Stations






























Interactive Weather Map New forecast layout! Learn more

10-Day Weather Forecast

Advertisements
Track Severe Weather on mobile